Darstellungsparameter: Aktuell verwendete Einstellungen:
Skalierung der Graphiken ... ?
xyx+y,   Skalierungsfaktor:      Skalierung: Modus: x, Faktor: 1
Darstellungszeitraum ... ?
Vom - - bis: - -   Zeitraum: 10.05.2015 - 10.05.2015
Min/Max/Avg-Anzeige ... ?
Zeige MMA aktuell
Zeige MMA Monat
Zeige MMA alles
Zeige --A aktuell
Zeige --A Monat
Zeige --A alles
Keine MMA-Anzeige
MMA:
Minimum Maximum Average (ber die Originaldaten)
MMA-Basis: 10.05.2015 - 10.05.2015
Quicknavigation für Darstellung... ?
Tage:      1T, 2T, 3T, 5T -1T -2T -3T -5T +1T +2T +3T +5T
Wochen: 1W, 2W, 3W -1W -2W -3W +1W +2W +3W
Monate: 1M, 3M, 6M -1M -3M -6M +1M +3M +6M
Jahre:    1J, 3J, 5J, 10J -1J -3J -5J -10J +1J +3J +5J +10J
Nutze für die Darstellung ... ?
Originaldaten oder Mittelwerte auf ...
Stundenbasis Tagesbasis Wochenbasis
Monatsbasis Jahresbasis      Datenbasis: Original-Daten
Darstellen als:
Statistik (Auto) Statistik J:M      Darstellung:
Zur Graphik,    zurück zur Übersicht aller Sensoren.
 
Tabellarische Datenbersicht: ?
 
Sensor: Nr:Datum:Temp:Abs-Feuchte:Windchill:Wind:
Aussen-T/F 1 10-05-2015 00:00:00 11.4 C 9.44 g/m*3 11.4 C 1.6 km/h
2 10-05-2015 00:05:00 11.3 C 9.38 g/m*3 11.3 C 1.6 km/h
3 10-05-2015 00:10:00 11.3 C 9.38 g/m*3 11.3 C 3.2 km/h
4 10-05-2015 00:15:00 11.3 C 9.38 g/m*3 11.3 C 3.2 km/h
5 10-05-2015 00:20:00 11.3 C 9.28 g/m*3 11.3 C 1.6 km/h
6 10-05-2015 00:25:00 11.2 C 9.33 g/m*3 11.2 C 1.6 km/h
7 10-05-2015 00:30:00 11.1 C 9.27 g/m*3 11.1 C 0 km/h
8 10-05-2015 00:35:00 10.9 C 9.15 g/m*3 10.9 C 0 km/h
9 10-05-2015 00:40:00 10.8 C 9.09 g/m*3 10.8 C 0 km/h
10 10-05-2015 00:45:00 10.7 C 9.13 g/m*3 10.7 C 0 km/h
11 10-05-2015 00:50:00 10.6 C 9.08 g/m*3 10.6 C 0 km/h
12 10-05-2015 00:55:00 10.4 C 8.96 g/m*3 10.4 C 0 km/h
13 10-05-2015 01:00:00 10.4 C 8.96 g/m*3 10.4 C 0 km/h
14 10-05-2015 01:05:00 10.4 C 8.96 g/m*3 10.4 C 0 km/h
15 10-05-2015 01:10:00 10.4 C 9.06 g/m*3 10.4 C 1.6 km/h
16 10-05-2015 01:15:00 10.4 C 9.06 g/m*3 10.4 C 1.6 km/h
17 10-05-2015 01:20:00 10.5 C 9.12 g/m*3 10.5 C 0 km/h
18 10-05-2015 01:25:00 10.5 C 9.02 g/m*3 10.5 C 1.6 km/h
19 10-05-2015 01:30:00 10.6 C 9.08 g/m*3 10.6 C 3.2 km/h
20 10-05-2015 01:35:00 10.8 C 9.19 g/m*3 10.8 C 1.6 km/h
21 10-05-2015 01:40:00 10.8 C 9.09 g/m*3 10.8 C 4.8 km/h
22 10-05-2015 01:45:00 10.8 C 9.09 g/m*3 10.8 C 3.2 km/h
23 10-05-2015 01:50:00 10.7 C 9.04 g/m*3 10.7 C 4.8 km/h
24 10-05-2015 01:55:00 10.7 C 9.04 g/m*3 10.7 C 1.6 km/h
25 10-05-2015 02:00:00 10.6 C 8.98 g/m*3 10.6 C 1.6 km/h
Sensor: Nr:Datum:Temp:Abs-Feuchte:Windchill:Wind:
Aussen-T/F 26 10-05-2015 02:05:00 10.6 C 8.98 g/m*3 10.6 C 1.6 km/h
27 10-05-2015 02:10:00 10.5 C 8.92 g/m*3 10.5 C 3.2 km/h
28 10-05-2015 02:15:00 10.4 C 8.87 g/m*3 10.4 C 0 km/h
29 10-05-2015 02:20:00 10.3 C 8.81 g/m*3 10.3 C 0 km/h
30 10-05-2015 02:25:00 10.3 C 8.91 g/m*3 10.3 C 0 km/h
31 10-05-2015 02:30:00 10.3 C 8.91 g/m*3 10.3 C 0 km/h
32 10-05-2015 02:35:00 10.2 C 8.85 g/m*3 10.2 C 1.6 km/h
33 10-05-2015 02:40:00 10.2 C 8.85 g/m*3 10.2 C 0 km/h
34 10-05-2015 02:45:00 10.1 C 8.79 g/m*3 10.1 C 0 km/h
35 10-05-2015 02:50:00 10.1 C 8.79 g/m*3 10.1 C 0 km/h
36 10-05-2015 02:55:00 10 C 8.74 g/m*3 10 C 0 km/h
37 10-05-2015 03:00:00 10 C 8.74 g/m*3 10 C 0 km/h
38 10-05-2015 03:05:00 9.9 C 8.68 g/m*3 9.9 C 1.6 km/h
39 10-05-2015 03:10:00 9.9 C 8.68 g/m*3 9.9 C 0 km/h
40 10-05-2015 03:15:00 9.9 C 8.68 g/m*3 9.9 C 0 km/h
41 10-05-2015 03:20:00 9.8 C 8.63 g/m*3 9.8 C 1.6 km/h
42 10-05-2015 03:25:00 9.8 C 8.63 g/m*3 9.8 C 0 km/h
43 10-05-2015 03:30:00 9.8 C 8.63 g/m*3 9.8 C 0 km/h
44 10-05-2015 03:35:00 9.8 C 8.72 g/m*3 9.8 C 0 km/h
45 10-05-2015 03:40:00 9.8 C 8.63 g/m*3 9.8 C 0 km/h
46 10-05-2015 03:45:00 9.8 C 8.63 g/m*3 9.8 C 1.6 km/h
47 10-05-2015 03:50:00 9.8 C 8.72 g/m*3 9.8 C 4.8 km/h
48 10-05-2015 03:55:00 9.8 C 8.72 g/m*3 9.8 C 3.2 km/h
49 10-05-2015 04:00:00 9.9 C 8.68 g/m*3 9.9 C 3.2 km/h
50 10-05-2015 04:05:00 9.9 C 8.68 g/m*3 9.9 C 4.8 km/h
Sensor: Nr:Datum:Temp:Abs-Feuchte:Windchill:Wind:
Aussen-T/F 51 10-05-2015 04:10:00 9.9 C 8.68 g/m*3 9.9 C 1.6 km/h
52 10-05-2015 04:15:00 10.1 C 8.7 g/m*3 9.48 C 6.4 km/h
53 10-05-2015 04:20:00 10.2 C 8.66 g/m*3 10.2 C 3.2 km/h
54 10-05-2015 04:25:00 10.3 C 8.62 g/m*3 10.3 C 1.6 km/h
55 10-05-2015 04:30:00 10.4 C 8.58 g/m*3 10.4 C 3.2 km/h
56 10-05-2015 04:35:00 10.4 C 8.48 g/m*3 10.4 C 3.2 km/h
57 10-05-2015 04:40:00 10.4 C 8.48 g/m*3 10.4 C 1.6 km/h
58 10-05-2015 04:45:00 10.4 C 8.48 g/m*3 10.4 C 3.2 km/h
59 10-05-2015 04:50:00 10.4 C 8.48 g/m*3 10.4 C 1.6 km/h
60 10-05-2015 04:55:00 10.3 C 8.43 g/m*3 10.3 C 3.2 km/h
61 10-05-2015 05:00:00 10.1 C 8.42 g/m*3 10.1 C 0 km/h
62 10-05-2015 05:05:00 9.9 C 8.31 g/m*3 9.9 C 0 km/h
63 10-05-2015 05:10:00 9.7 C 8.3 g/m*3 9.7 C 1.6 km/h
64 10-05-2015 05:15:00 9.6 C 8.34 g/m*3 9.6 C 1.6 km/h
65 10-05-2015 05:20:00 9.4 C 8.23 g/m*3 9.4 C 0 km/h
66 10-05-2015 05:25:00 9.3 C 8.18 g/m*3 9.3 C 0 km/h
67 10-05-2015 05:30:00 9.3 C 8.18 g/m*3 9.3 C 4.8 km/h
68 10-05-2015 05:35:00 9.3 C 8.18 g/m*3 9.3 C 3.2 km/h
69 10-05-2015 05:40:00 9.3 C 8.18 g/m*3 9.3 C 0 km/h
70 10-05-2015 05:45:00 9.2 C 8.22 g/m*3 9.2 C 1.6 km/h
71 10-05-2015 05:50:00 9.1 C 8.16 g/m*3 9.1 C 0 km/h
72 10-05-2015 05:55:00 9.1 C 8.16 g/m*3 9.1 C 4.8 km/h
73 10-05-2015 06:00:00 9 C 8.11 g/m*3 9 C 0 km/h
74 10-05-2015 06:05:00 8.9 C 8.15 g/m*3 8.9 C 0 km/h
75 10-05-2015 06:10:00 8.9 C 8.15 g/m*3 8.9 C 0 km/h
Sensor: Nr:Datum:Temp:Abs-Feuchte:Windchill:Wind:
Aussen-T/F 76 10-05-2015 06:15:00 9.1 C 8.25 g/m*3 9.1 C 0 km/h
77 10-05-2015 06:20:00 9.1 C 8.25 g/m*3 9.1 C 3.2 km/h
78 10-05-2015 06:25:00 9.2 C 8.3 g/m*3 9.2 C 1.6 km/h
79 10-05-2015 06:30:00 9.2 C 8.3 g/m*3 9.2 C 3.2 km/h
80 10-05-2015 06:35:00 9.3 C 8.36 g/m*3 9.3 C 3.2 km/h
81 10-05-2015 06:40:00 9.4 C 8.41 g/m*3 9.4 C 3.2 km/h
82 10-05-2015 06:45:00 9.4 C 8.41 g/m*3 9.4 C 1.6 km/h
83 10-05-2015 06:50:00 9.5 C 8.37 g/m*3 9.5 C 4.8 km/h
84 10-05-2015 06:55:00 9.6 C 8.43 g/m*3 8.91 C 6.4 km/h
85 10-05-2015 07:00:00 9.6 C 8.43 g/m*3 9.6 C 4.8 km/h
86 10-05-2015 07:05:00 9.7 C 8.48 g/m*3 9.7 C 3.2 km/h
87 10-05-2015 07:10:00 9.8 C 8.54 g/m*3 8.18 C 11.3 km/h
88 10-05-2015 07:15:00 9.9 C 8.5 g/m*3 9.9 C 4.8 km/h
89 10-05-2015 07:20:00 10.1 C 8.7 g/m*3 9.48 C 6.4 km/h
90 10-05-2015 07:25:00 10.2 C 8.66 g/m*3 9.22 C 8.1 km/h
91 10-05-2015 07:30:00 10.2 C 8.66 g/m*3 9.22 C 8.1 km/h
92 10-05-2015 07:35:00 10.3 C 8.71 g/m*3 9.72 C 6.4 km/h
93 10-05-2015 07:40:00 10.3 C 8.71 g/m*3 10.3 C 4.8 km/h
94 10-05-2015 07:45:00 10.4 C 8.67 g/m*3 10.4 C 4.8 km/h
95 10-05-2015 07:50:00 10.4 C 8.67 g/m*3 9.83 C 6.4 km/h
96 10-05-2015 07:55:00 10.5 C 8.83 g/m*3 10.5 C 4.8 km/h
97 10-05-2015 08:00:00 10.5 C 8.73 g/m*3 9.28 C 9.7 km/h
98 10-05-2015 08:05:00 10.6 C 8.78 g/m*3 9.14 C 11.3 km/h
99 10-05-2015 08:10:00 10.7 C 8.94 g/m*3 9.52 C 9.7 km/h
100 10-05-2015 08:15:00 10.8 C 8.99 g/m*3 10.29 C 6.4 km/h
Sensor: Nr:Datum:Temp:Abs-Feuchte:Windchill:Wind:
Aussen-T/F 101 10-05-2015 08:20:00 10.9 C 9.05 g/m*3 9.76 C 9.7 km/h
102 10-05-2015 08:25:00 11.1 C 9.07 g/m*3 11.1 C 9.7 km/h
103 10-05-2015 08:30:00 11.2 C 9.12 g/m*3 11.2 C 6.4 km/h
104 10-05-2015 08:35:00 11.4 C 9.24 g/m*3 11.4 C 8.1 km/h
105 10-05-2015 08:40:00 11.6 C 9.25 g/m*3 11.6 C 6.4 km/h
106 10-05-2015 08:45:00 11.7 C 9.31 g/m*3 11.7 C 8.1 km/h
107 10-05-2015 08:50:00 12 C 9.38 g/m*3 12 C 8.1 km/h
108 10-05-2015 08:55:00 12.2 C 9.5 g/m*3 12.2 C 8.1 km/h
109 10-05-2015 09:00:00 12.3 C 9.45 g/m*3 12.3 C 6.4 km/h
110 10-05-2015 09:05:00 12.3 C 9.45 g/m*3 12.3 C 6.4 km/h
111 10-05-2015 09:10:00 12.4 C 9.51 g/m*3 12.4 C 6.4 km/h
112 10-05-2015 09:15:00 12.4 C 9.4 g/m*3 12.4 C 4.8 km/h
113 10-05-2015 09:20:00 12.4 C 9.4 g/m*3 12.4 C 4.8 km/h
114 10-05-2015 09:25:00 12.6 C 9.51 g/m*3 12.6 C 4.8 km/h
115 10-05-2015 09:30:00 12.8 C 9.63 g/m*3 12.8 C 3.2 km/h
116 10-05-2015 09:35:00 12.9 C 9.58 g/m*3 12.9 C 3.2 km/h
117 10-05-2015 09:40:00 13.1 C 9.47 g/m*3 13.1 C 6.4 km/h
118 10-05-2015 09:45:00 13.2 C 9.42 g/m*3 13.2 C 6.4 km/h
119 10-05-2015 09:50:00 13.3 C 9.24 g/m*3 13.3 C 4.8 km/h
120 10-05-2015 09:55:00 13.3 C 9.01 g/m*3 13.3 C 1.6 km/h
121 10-05-2015 10:00:00 13.4 C 9.07 g/m*3 13.4 C 8.1 km/h
122 10-05-2015 10:05:00 13.7 C 9.12 g/m*3 13.7 C 9.7 km/h
123 10-05-2015 10:10:00 13.8 C 9.17 g/m*3 13.8 C 3.2 km/h
124 10-05-2015 10:15:00 14.1 C 9.47 g/m*3 14.1 C 4.8 km/h
125 10-05-2015 10:20:00 14.7 C 9.69 g/m*3 14.7 C 6.4 km/h
Sensor: Nr:Datum:Temp:Abs-Feuchte:Windchill:Wind:
Aussen-T/F 126 10-05-2015 10:25:00 14.9 C 9.18 g/m*3 14.9 C 6.4 km/h
127 10-05-2015 10:30:00 14.9 C 9.05 g/m*3 14.9 C 4.8 km/h
128 10-05-2015 10:35:00 14.9 C 9.18 g/m*3 14.9 C 4.8 km/h
129 10-05-2015 10:40:00 14.9 C 9.05 g/m*3 14.9 C 3.2 km/h
130 10-05-2015 10:45:00 14.9 C 8.92 g/m*3 14.9 C 0 km/h
131 10-05-2015 10:50:00 14.9 C 9.05 g/m*3 14.9 C 1.6 km/h
132 10-05-2015 10:55:00 14.9 C 9.18 g/m*3 14.9 C 9.7 km/h
133 10-05-2015 11:00:00 15.2 C 9.22 g/m*3 15.2 C 4.8 km/h
134 10-05-2015 11:05:00 15.4 C 9.33 g/m*3 15.4 C 4.8 km/h
135 10-05-2015 11:10:00 15.6 C 9.44 g/m*3 15.6 C 3.2 km/h
136 10-05-2015 11:15:00 15.9 C 9.75 g/m*3 15.9 C 6.4 km/h
137 10-05-2015 11:20:00 16.3 C 9.85 g/m*3 16.3 C 6.4 km/h
138 10-05-2015 11:25:00 16.6 C 9.46 g/m*3 16.6 C 6.4 km/h
139 10-05-2015 11:30:00 17.1 C 9.75 g/m*3 17.1 C 8.1 km/h
140 10-05-2015 11:35:00 17.2 C 9.52 g/m*3 17.2 C 8.1 km/h
141 10-05-2015 11:40:00 17.3 C 10.02 g/m*3 17.3 C 6.4 km/h
142 10-05-2015 11:45:00 17.4 C 10.23 g/m*3 17.4 C 6.4 km/h
143 10-05-2015 11:50:00 17.3 C 9.58 g/m*3 17.3 C 6.4 km/h
144 10-05-2015 11:55:00 17.1 C 9.61 g/m*3 17.1 C 8.1 km/h
145 10-05-2015 12:00:00 17.2 C 9.81 g/m*3 17.2 C 6.4 km/h
146 10-05-2015 12:05:00 17.1 C 9.61 g/m*3 17.1 C 6.4 km/h
147 10-05-2015 12:10:00 16.9 C 9.64 g/m*3 16.9 C 1.6 km/h
148 10-05-2015 12:15:00 16.8 C 9.72 g/m*3 16.8 C 4.8 km/h
149 10-05-2015 12:20:00 16.7 C 9.38 g/m*3 16.7 C 0 km/h
150 10-05-2015 12:25:00 16.7 C 9.66 g/m*3 16.7 C 3.2 km/h
Sensor: Nr:Datum:Temp:Abs-Feuchte:Windchill:Wind:
Aussen-T/F 151 10-05-2015 12:30:00 16.8 C 9.58 g/m*3 16.8 C 3.2 km/h
152 10-05-2015 12:35:00 17 C 9.69 g/m*3 17 C 1.6 km/h
153 10-05-2015 12:40:00 17 C 9.12 g/m*3 17 C 3.2 km/h
154 10-05-2015 12:45:00 16.9 C 9.21 g/m*3 16.9 C 4.8 km/h
155 10-05-2015 12:50:00 17 C 9.41 g/m*3 17 C 3.2 km/h
156 10-05-2015 12:55:00 17 C 9.26 g/m*3 17 C 1.6 km/h
157 10-05-2015 13:00:00 17.3 C 10.02 g/m*3 17.3 C 1.6 km/h
158 10-05-2015 13:05:00 17.8 C 10.02 g/m*3 17.8 C 6.4 km/h
159 10-05-2015 13:10:00 17.8 C 9.41 g/m*3 17.8 C 4.8 km/h
160 10-05-2015 13:15:00 17.7 C 9.2 g/m*3 17.7 C 1.6 km/h
161 10-05-2015 13:20:00 17.4 C 8.89 g/m*3 17.4 C 0 km/h
162 10-05-2015 13:25:00 17.3 C 9.58 g/m*3 17.3 C 0 km/h
163 10-05-2015 13:30:00 17.5 C 9.99 g/m*3 17.5 C 4.8 km/h
164 10-05-2015 13:35:00 18.2 C 10.1 g/m*3 18.2 C 4.8 km/h
165 10-05-2015 13:40:00 18.8 C 9.34 g/m*3 18.8 C 6.4 km/h
166 10-05-2015 13:45:00 19.1 C 10.33 g/m*3 19.1 C 6.4 km/h
167 10-05-2015 13:50:00 19.3 C 9.79 g/m*3 19.3 C 3.2 km/h
168 10-05-2015 13:55:00 19.4 C 9.34 g/m*3 19.4 C 6.4 km/h
169 10-05-2015 14:00:00 19.6 C 9.79 g/m*3 19.6 C 8.1 km/h
170 10-05-2015 14:05:00 19.6 C 9.12 g/m*3 19.6 C 4.8 km/h
171 10-05-2015 14:10:00 19.7 C 9.34 g/m*3 19.7 C 6.4 km/h
172 10-05-2015 14:15:00 20.1 C 9.56 g/m*3 20.1 C 6.4 km/h
173 10-05-2015 14:20:00 20.3 C 9.5 g/m*3 20.3 C 8.1 km/h
174 10-05-2015 14:25:00 20.4 C 9.02 g/m*3 20.4 C 4.8 km/h
175 10-05-2015 14:30:00 20.5 C 9.43 g/m*3 20.5 C 3.2 km/h
Sensor: Nr:Datum:Temp:Abs-Feuchte:Windchill:Wind:
Aussen-T/F 176 10-05-2015 14:35:00 20.6 C 9.49 g/m*3 20.6 C 11.3 km/h
177 10-05-2015 14:40:00 20.5 C 9.43 g/m*3 20.5 C 8.1 km/h
178 10-05-2015 14:45:00 20.6 C 9.49 g/m*3 20.6 C 8.1 km/h
179 10-05-2015 14:50:00 20.6 C 9.49 g/m*3 20.6 C 8.1 km/h
180 10-05-2015 14:55:00 20.7 C 9.54 g/m*3 20.7 C 4.8 km/h
181 10-05-2015 15:00:00 20.9 C 9.83 g/m*3 20.9 C 9.7 km/h
182 10-05-2015 15:05:00 21.1 C 10.5 g/m*3 21.1 C 6.4 km/h
183 10-05-2015 15:10:00 21.1 C 9.03 g/m*3 21.1 C 4.8 km/h
184 10-05-2015 15:15:00 21.1 C 9.4 g/m*3 21.1 C 6.4 km/h
185 10-05-2015 15:20:00 21.1 C 9.58 g/m*3 21.1 C 8.1 km/h
186 10-05-2015 15:25:00 21.2 C 10.38 g/m*3 21.2 C 6.4 km/h
187 10-05-2015 15:30:00 21.4 C 9.19 g/m*3 21.4 C 9.7 km/h
188 10-05-2015 15:35:00 21.3 C 8.57 g/m*3 21.3 C 8.1 km/h
189 10-05-2015 15:40:00 21 C 8.79 g/m*3 21 C 9.7 km/h
190 10-05-2015 15:45:00 21.2 C 9.27 g/m*3 21.2 C 4.8 km/h
191 10-05-2015 15:50:00 21.3 C 8.95 g/m*3 21.3 C 4.8 km/h
192 10-05-2015 15:55:00 21.3 C 8.57 g/m*3 21.3 C 11.3 km/h
193 10-05-2015 16:00:00 21.4 C 8.81 g/m*3 21.4 C 6.4 km/h
194 10-05-2015 16:05:00 21.6 C 8.91 g/m*3 21.6 C 8.1 km/h
195 10-05-2015 16:10:00 21.7 C 9.16 g/m*3 21.7 C 8.1 km/h
196 10-05-2015 16:15:00 21.7 C 9.54 g/m*3 21.7 C 6.4 km/h
197 10-05-2015 16:20:00 21.8 C 8.63 g/m*3 21.8 C 6.4 km/h
198 10-05-2015 16:25:00 21.9 C 8.68 g/m*3 21.9 C 8.1 km/h
199 10-05-2015 16:30:00 22.3 C 9.68 g/m*3 22.3 C 6.4 km/h
200 10-05-2015 16:35:00 22.7 C 9.29 g/m*3 22.7 C 6.4 km/h
Sensor: Nr:Datum:Temp:Abs-Feuchte:Windchill:Wind:
Aussen-T/F 201 10-05-2015 16:40:00 22.7 C 8.69 g/m*3 22.7 C 9.7 km/h
202 10-05-2015 16:45:00 22.5 C 8.99 g/m*3 22.5 C 8.1 km/h
203 10-05-2015 16:50:00 22.5 C 9.39 g/m*3 22.5 C 11.3 km/h
204 10-05-2015 16:55:00 22.6 C 8.84 g/m*3 22.6 C 8.1 km/h
205 10-05-2015 17:00:00 22.6 C 8.84 g/m*3 22.6 C 8.1 km/h
206 10-05-2015 17:05:00 22.4 C 9.14 g/m*3 22.4 C 8.1 km/h
207 10-05-2015 17:10:00 22.7 C 9.29 g/m*3 22.7 C 4.8 km/h
208 10-05-2015 17:15:00 22.8 C 9.35 g/m*3 22.8 C 8.1 km/h
209 10-05-2015 17:20:00 22.9 C 8.79 g/m*3 22.9 C 8.1 km/h
210 10-05-2015 17:25:00 22.9 C 8.79 g/m*3 22.9 C 6.4 km/h
211 10-05-2015 17:30:00 22.8 C 8.74 g/m*3 22.8 C 3.2 km/h
212 10-05-2015 17:35:00 22.8 C 9.14 g/m*3 22.8 C 4.8 km/h
213 10-05-2015 17:40:00 22.6 C 8.84 g/m*3 22.6 C 6.4 km/h
214 10-05-2015 17:45:00 22.1 C 8.59 g/m*3 22.1 C 6.4 km/h
215 10-05-2015 17:50:00 21.8 C 9.21 g/m*3 21.8 C 3.2 km/h
216 10-05-2015 17:55:00 21.4 C 8.81 g/m*3 21.4 C 3.2 km/h
217 10-05-2015 18:00:00 21.4 C 9.37 g/m*3 21.4 C 4.8 km/h
218 10-05-2015 18:05:00 21.3 C 9.69 g/m*3 21.3 C 6.4 km/h
219 10-05-2015 18:10:00 21.3 C 8.95 g/m*3 21.3 C 4.8 km/h
220 10-05-2015 18:15:00 21.4 C 8.81 g/m*3 21.4 C 3.2 km/h
221 10-05-2015 18:20:00 21.4 C 8.81 g/m*3 21.4 C 8.1 km/h
222 10-05-2015 18:25:00 21.5 C 8.86 g/m*3 21.5 C 4.8 km/h
223 10-05-2015 18:30:00 21.6 C 9.1 g/m*3 21.6 C 3.2 km/h
224 10-05-2015 18:35:00 21.8 C 9.02 g/m*3 21.8 C 3.2 km/h
225 10-05-2015 18:40:00 21.7 C 8.58 g/m*3 21.7 C 6.4 km/h
Sensor: Nr:Datum:Temp:Abs-Feuchte:Windchill:Wind:
Aussen-T/F 226 10-05-2015 18:45:00 21.4 C 9 g/m*3 21.4 C 6.4 km/h
227 10-05-2015 18:50:00 21.4 C 9.19 g/m*3 21.4 C 4.8 km/h
228 10-05-2015 18:55:00 21.3 C 8.76 g/m*3 21.3 C 1.6 km/h
229 10-05-2015 19:00:00 21.2 C 9.08 g/m*3 21.2 C 3.2 km/h
230 10-05-2015 19:05:00 21 C 10.26 g/m*3 21 C 4.8 km/h
231 10-05-2015 19:10:00 20.8 C 9.42 g/m*3 20.8 C 1.6 km/h
232 10-05-2015 19:15:00 20.7 C 10.08 g/m*3 20.7 C 3.2 km/h
233 10-05-2015 19:20:00 20.4 C 10.61 g/m*3 20.4 C 0 km/h
234 10-05-2015 19:25:00 20.2 C 10.84 g/m*3 20.2 C 1.6 km/h
235 10-05-2015 19:30:00 19.9 C 11.17 g/m*3 19.9 C 0 km/h
236 10-05-2015 19:35:00 19.6 C 11.14 g/m*3 19.6 C 0 km/h
237 10-05-2015 19:40:00 19.2 C 11.21 g/m*3 19.2 C 1.6 km/h
238 10-05-2015 19:45:00 18.9 C 11.18 g/m*3 18.9 C 0 km/h
239 10-05-2015 19:50:00 18.6 C 10.66 g/m*3 18.6 C 0 km/h
240 10-05-2015 19:55:00 18.4 C 11.01 g/m*3 18.4 C 0 km/h
241 10-05-2015 20:00:00 18.1 C 10.97 g/m*3 18.1 C 0 km/h
242 10-05-2015 20:05:00 17.8 C 10.93 g/m*3 17.8 C 0 km/h
243 10-05-2015 20:10:00 17.5 C 10.73 g/m*3 17.5 C 0 km/h
244 10-05-2015 20:15:00 17.2 C 10.69 g/m*3 17.2 C 0 km/h
245 10-05-2015 20:20:00 17.1 C 10.77 g/m*3 17.1 C 0 km/h
246 10-05-2015 20:25:00 16.8 C 10.58 g/m*3 16.8 C 1.6 km/h
247 10-05-2015 20:30:00 16.4 C 10.61 g/m*3 16.4 C 0 km/h
248 10-05-2015 20:35:00 16.2 C 10.48 g/m*3 16.2 C 1.6 km/h
249 10-05-2015 20:40:00 15.9 C 10.43 g/m*3 15.9 C 1.6 km/h
250 10-05-2015 20:45:00 15.6 C 10.37 g/m*3 15.6 C 1.6 km/h
Sensor: Nr:Datum:Temp:Abs-Feuchte:Windchill:Wind:
Aussen-T/F 251 10-05-2015 20:50:00 15.4 C 10.25 g/m*3 15.4 C 1.6 km/h
252 10-05-2015 20:55:00 15.2 C 10.12 g/m*3 15.2 C 1.6 km/h
253 10-05-2015 21:00:00 15 C 10 g/m*3 15 C 1.6 km/h
254 10-05-2015 21:05:00 14.8 C 9.88 g/m*3 14.8 C 1.6 km/h
255 10-05-2015 21:10:00 14.6 C 9.76 g/m*3 14.6 C 1.6 km/h
256 10-05-2015 21:15:00 14.4 C 9.77 g/m*3 14.4 C 1.6 km/h
257 10-05-2015 21:20:00 14.3 C 9.71 g/m*3 14.3 C 1.6 km/h
258 10-05-2015 21:25:00 14.3 C 9.71 g/m*3 14.3 C 1.6 km/h
259 10-05-2015 21:30:00 14.2 C 9.77 g/m*3 14.2 C 1.6 km/h
260 10-05-2015 21:35:00 14.1 C 9.71 g/m*3 14.1 C 1.6 km/h
261 10-05-2015 21:40:00 13.9 C 9.59 g/m*3 13.9 C 1.6 km/h
262 10-05-2015 21:45:00 13.9 C 9.59 g/m*3 13.9 C 1.6 km/h
263 10-05-2015 21:50:00 13.8 C 9.53 g/m*3 13.8 C 1.6 km/h
264 10-05-2015 21:55:00 13.7 C 9.47 g/m*3 13.7 C 1.6 km/h
265 10-05-2015 22:00:00 13.7 C 9.47 g/m*3 13.7 C 0 km/h
266 10-05-2015 22:05:00 13.6 C 9.42 g/m*3 13.6 C 0 km/h
267 10-05-2015 22:10:00 13.6 C 9.3 g/m*3 13.6 C 0 km/h
268 10-05-2015 22:15:00 13.4 C 9.53 g/m*3 13.4 C 1.6 km/h
269 10-05-2015 22:20:00 13.4 C 9.53 g/m*3 13.4 C 0 km/h
270 10-05-2015 22:25:00 13.4 C 9.53 g/m*3 13.4 C 0 km/h
271 10-05-2015 22:30:00 13.3 C 9.24 g/m*3 13.3 C 0 km/h
272 10-05-2015 22:35:00 13.2 C 9.3 g/m*3 13.2 C 0 km/h
273 10-05-2015 22:40:00 13 C 9.19 g/m*3 13 C 0 km/h
274 10-05-2015 22:45:00 12.9 C 9.13 g/m*3 12.9 C 0 km/h
275 10-05-2015 22:50:00 12.8 C 9.3 g/m*3 12.8 C 0 km/h
Sensor: Nr:Datum:Temp:Abs-Feuchte:Windchill:Wind:
Aussen-T/F 276 10-05-2015 22:55:00 12.8 C 9.3 g/m*3 12.8 C 0 km/h
277 10-05-2015 23:00:00 12.8 C 9.3 g/m*3 12.8 C 0 km/h
278 10-05-2015 23:05:00 12.7 C 9.24 g/m*3 12.7 C 0 km/h
279 10-05-2015 23:10:00 12.6 C 9.07 g/m*3 12.6 C 1.6 km/h
280 10-05-2015 23:15:00 12.6 C 9.07 g/m*3 12.6 C 0 km/h
281 10-05-2015 23:20:00 12.6 C 9.18 g/m*3 12.6 C 0 km/h
282 10-05-2015 23:25:00 12.4 C 9.07 g/m*3 12.4 C 0 km/h
283 10-05-2015 23:30:00 12.4 C 9.29 g/m*3 12.4 C 0 km/h
284 10-05-2015 23:35:00 12.3 C 9.12 g/m*3 12.3 C 0 km/h
285 10-05-2015 23:40:00 12.3 C 9.12 g/m*3 12.3 C 0 km/h
286 10-05-2015 23:45:00 12.3 C 9.12 g/m*3 12.3 C 0 km/h
287 10-05-2015 23:50:00 12.3 C 9.12 g/m*3 12.3 C 0 km/h
288 10-05-2015 23:55:00 12.2 C 9.06 g/m*3 12.2 C 1.6 km/h

Legende:
   Min
   Max


Maximal/Minimal-Werte vom 10.05.2015 - 10.05.2015

Sensor Min Max Avg
Temp
(Aussen-T/F)
8.9 °C
10-05-2015  06:05:00
22.9 °C
10-05-2015  17:20:00
14.78 °C
Abs-Feuchte
(Aussen-T/F)
8.11 g/m*3
10-05-2015  06:00:00
11.21 g/m*3
10-05-2015  19:40:00
9.19 g/m*3
Windchill
(Aussen-T/F)
8.18 C
10-05-2015  07:10:00
22.9 C
10-05-2015  17:20:00
14.69 C

Die Daten stammen von einer Davis Vantage Pro 2 Wetter-Station und werden unter Linux mit der Software wview2wettercgi und aufbereitet. Alle Angaben erfolgen ohne Gewähr für ihre Vollständigkeit oder Richtigkeit.
Kontakt: Rainer Krienke krienke@uni-koblenz.de . Meine Webseiten an der Uni Koblenz oder privat.
Version: $Revision: 0.78 $